createdAt,value
2023-04-15T00:01:12.140Z,101053.34
2023-04-15T00:03:39.306Z,101039.00
2023-04-15T00:06:06.190Z,101030.09
2023-04-15T00:08:33.324Z,101054.00
2023-04-15T00:11:05.861Z,101051.50
2023-04-15T00:13:35.328Z,101046.97
2023-04-15T00:16:04.789Z,101051.09
2023-04-15T00:18:37.504Z,101039.56
2023-04-15T00:21:05.244Z,101073.97
2023-04-15T00:23:34.395Z,101060.72
2023-04-15T00:26:03.592Z,101056.03
2023-04-15T00:28:33.654Z,101054.72
2023-04-15T00:31:02.521Z,101088.25
2023-04-15T00:33:34.281Z,101075.09
2023-04-15T00:36:03.770Z,101088.41
2023-04-15T00:38:30.333Z,101056.69
2023-04-15T00:40:59.334Z,101078.81
2023-04-15T00:43:26.729Z,101072.59
2023-04-15T00:45:59.165Z,101073.06
2023-04-15T00:48:28.091Z,101095.94
2023-04-15T00:50:54.688Z,101103.53
2023-04-15T00:53:21.821Z,101090.91
2023-04-15T00:55:48.630Z,101104.19
2023-04-15T00:58:20.704Z,101109.25
2023-04-15T01:00:47.922Z,101108.28
2023-04-15T01:03:16.931Z,101080.72
2023-04-15T01:05:43.602Z,101113.69
2023-04-15T01:08:11.452Z,101109.34
2023-04-15T01:10:40.073Z,101064.72
2023-04-15T01:13:06.938Z,101115.31
2023-04-15T01:15:38.044Z,101115.31
2023-04-15T01:18:05.322Z,101123.34
2023-04-15T01:20:34.170Z,101107.31
2023-04-15T01:23:01.488Z,101133.81
2023-04-15T01:25:34.886Z,101141.75
2023-04-15T01:28:02.290Z,101118.72
2023-04-15T01:30:29.368Z,101138.44
2023-04-15T01:32:58.309Z,101155.91
2023-04-15T01:35:25.093Z,101147.97
2023-04-15T01:37:51.784Z,101137.22
2023-04-15T01:40:20.784Z,101155.91
2023-04-15T01:42:49.835Z,101160.09
2023-04-15T01:45:16.733Z,101172.31
2023-04-15T01:47:45.710Z,101179.78
2023-04-15T01:50:14.458Z,101171.72
2023-04-15T01:52:43.700Z,101204.13
2023-04-15T01:55:14.044Z,101211.97
2023-04-15T01:57:41.228Z,101212.78
2023-04-15T02:00:08.544Z,101215.28
2023-04-15T02:02:36.035Z,101186.06
2023-04-15T02:05:05.677Z,101216.34
2023-04-15T02:07:32.524Z,101220.56
2023-04-15T02:09:59.213Z,101229.50
2023-04-15T02:12:28.144Z,101226.94
2023-04-15T02:14:57.011Z,101246.72
2023-04-15T02:17:23.662Z,101224.81
2023-04-15T02:19:52.679Z,101207.81
2023-04-15T02:22:21.742Z,101236.84
2023-04-15T02:24:48.589Z,101241.16
2023-04-15T02:27:22.553Z,101237.97
2023-04-15T02:29:51.453Z,101237.06
2023-04-15T02:32:18.780Z,101254.53
2023-04-15T02:34:47.635Z,101262.28
2023-04-15T02:37:14.383Z,101268.44
2023-04-15T02:39:43.645Z,101239.16
2023-04-15T02:42:10.214Z,101269.31
2023-04-15T02:44:36.875Z,101265.75
2023-04-15T02:47:04.963Z,101281.09
2023-04-15T02:49:31.584Z,101287.22
2023-04-15T02:51:59.997Z,101278.75
2023-04-15T02:54:29.987Z,101261.91
2023-04-15T02:56:59.053Z,101281.50
2023-04-15T02:59:25.862Z,101276.06
2023-04-15T03:01:56.552Z,101256.38
2023-04-15T03:04:23.230Z,101293.69
2023-04-15T03:06:49.887Z,101281.59
2023-04-15T03:09:18.698Z,101284.72
2023-04-15T03:11:45.317Z,101299.16
2023-04-15T03:14:14.024Z,101295.59
2023-04-15T03:16:40.744Z,101307.59
2023-04-15T03:19:07.520Z,101318.31
2023-04-15T03:21:37.077Z,101313.06
2023-04-15T03:24:06.907Z,101317.50
2023-04-15T03:26:33.569Z,101283.41
2023-04-15T03:29:03.019Z,101332.13
2023-04-15T03:31:30.010Z,101337.31
2023-04-15T03:33:58.972Z,101341.59
2023-04-15T03:36:26.330Z,101342.38
2023-04-15T03:38:56.223Z,101339.72
2023-04-15T03:41:27.422Z,101352.00
2023-04-15T03:43:54.200Z,101348.63
2023-04-15T03:46:21.016Z,101350.31
2023-04-15T03:48:48.353Z,101364.78
2023-04-15T03:51:14.983Z,101366.53
2023-04-15T03:53:41.577Z,101362.91
2023-04-15T03:56:08.256Z,101373.25
2023-04-15T03:58:34.876Z,101373.19
2023-04-15T04:01:01.464Z,101381.50
2023-04-15T04:03:30.410Z,101359.34
2023-04-15T04:05:57.180Z,101387.09
2023-04-15T04:08:23.742Z,101384.66
2023-04-15T04:10:50.448Z,101392.59
2023-04-15T04:13:17.158Z,101365.25
2023-04-15T04:15:43.844Z,101383.69
2023-04-15T04:18:10.479Z,101400.09
2023-04-15T04:20:39.296Z,101411.41
2023-04-15T04:23:06.117Z,101411.50
2023-04-15T04:25:33.208Z,101415.16
2023-04-15T04:27:59.832Z,101422.09
2023-04-15T04:30:26.447Z,101430.03
2023-04-15T04:32:53.229Z,101428.16
2023-04-15T04:35:22.757Z,101428.97
2023-04-15T04:37:49.352Z,101439.66
2023-04-15T04:40:18.427Z,101433.41
2023-04-15T04:42:45.179Z,101442.25
2023-04-15T04:45:11.832Z,101447.69
2023-04-15T04:47:38.489Z,101444.19
2023-04-15T04:50:05.642Z,101448.59
2023-04-15T04:52:32.230Z,101450.44
2023-04-15T04:54:58.892Z,101465.28
2023-04-15T04:57:25.583Z,101468.84
2023-04-15T04:59:52.639Z,101468.84
2023-04-15T05:02:23.890Z,101475.88
2023-04-15T05:04:52.149Z,101468.31
2023-04-15T05:07:20.863Z,101480.91
2023-04-15T05:09:47.564Z,101499.38
2023-04-15T05:12:16.431Z,101498.59
2023-04-15T05:14:46.870Z,101508.94
2023-04-15T05:17:15.832Z,101482.69
2023-04-15T05:19:42.537Z,101511.13
2023-04-15T05:22:09.213Z,101511.78
2023-04-15T05:24:35.897Z,101529.56
2023-04-15T05:27:02.846Z,101532.41
2023-04-15T05:29:29.606Z,101519.72
2023-04-15T05:31:59.043Z,101537.75
2023-04-15T05:34:25.674Z,101538.47
2023-04-15T05:36:52.700Z,101543.91
2023-04-15T05:39:19.314Z,101520.81
2023-04-15T05:41:45.951Z,101553.72
2023-04-15T05:44:17.384Z,101518.81
2023-04-15T05:46:48.563Z,101565.06
2023-04-15T05:49:15.120Z,101543.47
2023-04-15T05:51:41.768Z,101579.91
2023-04-15T05:54:10.887Z,101557.59
2023-04-15T05:56:39.787Z,101566.59
2023-04-15T05:59:08.878Z,101595.78
2023-04-15T06:01:37.856Z,101595.06
2023-04-15T06:04:05.009Z,101596.75
2023-04-15T06:06:32.625Z,101624.69
2023-04-15T06:08:59.849Z,101627.38
2023-04-15T06:11:27.386Z,101613.47
2023-04-15T06:13:54.117Z,101631.28
2023-04-15T06:16:20.781Z,101636.56
2023-04-15T06:18:47.477Z,101641.28
2023-04-15T06:21:14.246Z,101607.41
2023-04-15T06:23:43.701Z,101638.00
2023-04-15T06:26:12.605Z,101659.59
2023-04-15T06:28:39.281Z,101653.75
2023-04-15T06:31:06.480Z,101654.63
2023-04-15T06:33:35.284Z,101647.66
2023-04-15T06:36:02.475Z,101663.50
2023-04-15T06:38:31.507Z,101644.53
2023-04-15T06:40:58.267Z,101672.72
2023-04-15T06:43:25.034Z,101674.66
2023-04-15T06:45:56.636Z,101662.41
2023-04-15T06:48:23.281Z,101673.22
2023-04-15T06:50:55.269Z,101690.91
2023-04-15T06:53:24.967Z,101679.19
2023-04-15T06:55:53.787Z,101690.72
2023-04-15T06:58:25.508Z,101701.19
2023-04-15T07:00:53.281Z,101699.38
2023-04-15T07:03:22.548Z,101705.41
2023-04-15T07:05:49.146Z,101704.44
2023-04-15T07:08:15.899Z,101720.41
2023-04-15T07:10:42.675Z,101715.13
2023-04-15T07:13:09.325Z,101720.50
2023-04-15T07:15:38.194Z,101730.13
2023-04-15T07:18:04.908Z,101721.69
2023-04-15T07:20:31.835Z,101731.41
2023-04-15T07:23:00.947Z,101740.03
2023-04-15T07:25:27.601Z,101754.66
2023-04-15T07:27:54.321Z,101754.75
2023-04-15T07:30:20.974Z,101750.63
2023-04-15T07:32:47.634Z,101774.41
2023-04-15T07:35:14.778Z,101779.25
2023-04-15T07:37:43.736Z,101785.69
2023-04-15T07:40:11.086Z,101774.13
2023-04-15T07:42:40.737Z,101791.09
2023-04-15T07:45:10.940Z,101792.50
2023-04-15T07:47:37.563Z,101800.88
2023-04-15T07:50:04.593Z,101806.56
2023-04-15T07:52:39.161Z,101805.41
2023-04-15T07:55:10.864Z,101814.94
2023-04-15T07:57:37.733Z,101822.06
2023-04-15T08:00:05.866Z,101831.72
2023-04-15T08:02:35.142Z,101823.03
2023-04-15T08:05:04.453Z,101822.88
2023-04-15T08:07:31.476Z,101836.44
2023-04-15T08:09:58.101Z,101838.31
2023-04-15T08:12:24.778Z,101848.34
2023-04-15T08:14:52.266Z,101853.84
2023-04-15T08:17:18.983Z,101863.88
2023-04-15T08:19:48.463Z,101855.38
2023-04-15T08:22:18.087Z,101858.63
2023-04-15T08:24:47.729Z,101850.66
2023-04-15T08:27:16.597Z,101849.47
2023-04-15T08:29:45.662Z,101852.97
2023-04-15T08:32:15.052Z,101862.84
2023-04-15T08:34:44.195Z,101856.84
2023-04-15T08:37:11.476Z,101867.59
2023-04-15T08:39:39.244Z,101867.03
2023-04-15T08:42:12.240Z,101875.28
2023-04-15T08:44:40.382Z,101878.63
2023-04-15T08:47:16.617Z,101885.50
2023-04-15T08:49:43.554Z,101896.31
2023-04-15T08:52:10.830Z,101894.44
2023-04-15T08:54:38.907Z,101901.22
2023-04-15T08:57:06.803Z,101908.16
2023-04-15T08:59:35.730Z,101901.59
2023-04-15T09:02:04.051Z,101907.72
2023-04-15T09:04:32.994Z,101918.31
2023-04-15T09:06:59.648Z,101921.16
2023-04-15T09:09:27.438Z,101921.56
2023-04-15T09:11:57.490Z,101921.66
2023-04-15T09:14:24.271Z,101893.16
2023-04-15T09:17:07.199Z,101925.59
2023-04-15T09:19:34.660Z,101933.78
2023-04-15T09:22:02.393Z,101941.06
2023-04-15T09:24:40.422Z,101933.34
2023-04-15T09:27:07.431Z,101940.75
2023-04-15T09:29:37.533Z,101953.25
2023-04-15T09:32:17.823Z,101953.91
2023-04-15T09:34:44.779Z,101955.03
2023-04-15T09:37:29.105Z,101953.81
2023-04-15T09:39:59.106Z,101962.88
2023-04-15T09:42:28.731Z,101968.75
2023-04-15T09:44:57.955Z,101980.84
2023-04-15T09:47:32.340Z,101978.78
2023-04-15T09:50:01.278Z,101986.88
2023-04-15T09:52:29.035Z,101984.38
2023-04-15T09:55:00.907Z,101977.06
2023-04-15T09:57:36.547Z,101985.56
2023-04-15T10:00:08.464Z,101980.72
2023-04-15T10:02:36.834Z,101977.28
2023-04-15T10:05:06.359Z,101974.56
2023-04-15T10:07:34.037Z,101982.97
2023-04-15T10:10:02.577Z,101967.81
2023-04-15T10:12:31.229Z,101988.06
2023-04-15T10:15:06.056Z,101989.44
2023-04-15T10:17:35.598Z,101995.25
2023-04-15T10:20:04.929Z,101992.63
2023-04-15T10:22:34.140Z,102004.53
2023-04-15T10:25:02.917Z,101974.41
2023-04-15T10:27:30.444Z,102008.09
2023-04-15T10:29:57.559Z,102001.06
2023-04-15T10:32:25.642Z,102023.13
2023-04-15T10:34:54.580Z,102024.72
2023-04-15T10:37:41.924Z,102034.72
2023-04-15T10:40:27.405Z,102026.28
2023-04-15T10:42:58.110Z,102041.28
2023-04-15T10:45:37.255Z,102045.00
2023-04-15T10:48:08.944Z,102032.53
2023-04-15T10:50:39.873Z,102025.47
2023-04-15T10:53:06.639Z,102040.41
2023-04-15T10:55:34.208Z,102049.66
2023-04-15T10:58:02.264Z,102054.22
2023-04-15T11:00:31.538Z,102059.38
2023-04-15T11:03:12.298Z,102077.38
2023-04-15T11:05:41.792Z,102082.72
2023-04-15T11:08:09.992Z,102087.25
2023-04-15T11:10:36.642Z,102078.41
2023-04-15T11:13:05.628Z,102079.59
2023-04-15T11:15:46.513Z,102084.09
2023-04-15T11:18:18.049Z,102081.75
2023-04-15T11:20:50.691Z,102067.28
2023-04-15T11:23:38.895Z,102087.88
2023-04-15T11:26:10.231Z,102097.50
2023-04-15T11:28:39.064Z,102102.38
2023-04-15T11:31:11.423Z,102099.16
2023-04-15T11:33:39.940Z,102120.88
2023-04-15T11:36:06.906Z,102118.03
2023-04-15T11:38:34.605Z,102119.72
2023-04-15T11:41:01.339Z,102119.63
2023-04-15T11:43:31.037Z,102135.91
2023-04-15T11:45:59.794Z,102131.06
2023-04-15T11:48:32.683Z,102128.31
2023-04-15T11:51:07.750Z,102126.63
2023-04-15T11:53:43.209Z,102140.69
2023-04-15T11:56:10.669Z,102145.88
2023-04-15T11:58:38.572Z,102129.28
2023-04-15T12:01:07.849Z,102125.72
2023-04-15T12:03:48.400Z,102155.66
2023-04-15T12:06:19.667Z,102148.44
2023-04-15T12:08:52.881Z,102150.03
2023-04-15T12:11:34.174Z,102152.47
2023-04-15T12:14:22.788Z,102166.06
2023-04-15T12:16:54.019Z,102159.75
2023-04-15T12:19:25.343Z,102162.28
2023-04-15T12:21:54.120Z,102165.72
2023-04-15T12:24:25.073Z,102164.06
2023-04-15T12:26:54.946Z,102162.56
2023-04-15T12:29:27.851Z,102165.28
2023-04-15T12:32:21.992Z,102162.94
2023-04-15T12:34:54.504Z,102144.47
2023-04-15T12:37:21.922Z,102159.66
2023-04-15T12:39:50.216Z,102143.69
2023-04-15T12:42:17.852Z,102158.19
2023-04-15T12:44:44.875Z,102155.41
2023-04-15T12:47:12.445Z,102155.28
2023-04-15T12:49:39.855Z,102169.59
2023-04-15T12:52:06.805Z,102169.88
2023-04-15T12:54:36.442Z,102167.34
2023-04-15T12:57:06.796Z,102181.59
2023-04-15T12:59:36.718Z,102186.78
2023-04-15T13:02:03.991Z,102185.03
2023-04-15T13:04:31.724Z,102183.34
2023-04-15T13:06:58.523Z,102190.72
2023-04-15T13:09:27.328Z,102191.66
2023-04-15T13:11:54.637Z,102200.41
2023-04-15T13:14:21.566Z,102204.09
2023-04-15T13:16:48.450Z,102192.97
2023-04-15T13:19:15.145Z,102197.16
2023-04-15T13:21:44.198Z,102204.09
2023-04-15T13:24:13.324Z,102179.03
2023-04-15T13:26:39.949Z,102213.53
2023-04-15T13:29:06.888Z,102194.44
2023-04-15T13:31:33.600Z,102208.09
2023-04-15T13:34:02.726Z,102218.69
2023-04-15T13:36:29.584Z,102208.94
2023-04-15T13:38:57.088Z,102216.56
2023-04-15T13:41:28.225Z,102217.72
2023-04-15T13:43:54.851Z,102233.25
2023-04-15T13:46:21.500Z,102211.00
2023-04-15T13:48:48.164Z,102234.78
2023-04-15T13:51:14.926Z,102236.81
2023-04-15T13:53:41.718Z,102237.16
2023-04-15T13:56:11.231Z,102256.66
2023-04-15T13:58:38.592Z,102251.16
2023-04-15T14:01:07.027Z,102251.09
2023-04-15T14:03:40.581Z,102253.84
2023-04-15T14:06:07.425Z,102245.50
2023-04-15T14:08:36.548Z,102243.97
2023-04-15T14:11:03.246Z,102243.25
2023-04-15T14:13:30.054Z,102252.56
2023-04-15T14:15:59.398Z,102249.97
2023-04-15T14:18:26.250Z,102255.22
2023-04-15T14:20:52.869Z,102251.00
2023-04-15T14:23:19.663Z,102252.25
2023-04-15T14:25:48.172Z,102235.00
2023-04-15T14:28:15.426Z,102231.19
2023-04-15T14:30:42.148Z,102261.97
2023-04-15T14:33:08.847Z,102252.63
2023-04-15T14:35:35.946Z,102268.84
2023-04-15T14:38:06.097Z,102250.19
2023-04-15T14:40:33.834Z,102238.44
2023-04-15T14:43:03.473Z,102286.88
2023-04-15T14:45:30.999Z,102283.88
2023-04-15T14:47:57.706Z,102294.38
2023-04-15T14:50:26.822Z,102292.34
2023-04-15T14:52:55.827Z,102291.16
2023-04-15T14:55:22.705Z,102295.84
2023-04-15T14:57:51.558Z,102295.81
2023-04-15T15:00:18.299Z,102284.84
2023-04-15T15:02:45.390Z,102293.56
2023-04-15T15:05:12.553Z,102300.59
2023-04-15T15:07:42.165Z,102304.09
2023-04-15T15:10:09.287Z,102298.84
2023-04-15T15:12:36.443Z,102294.34
2023-04-15T15:15:15.755Z,102302.41
2023-04-15T15:17:54.402Z,102312.19
2023-04-15T15:20:24.271Z,102311.28
2023-04-15T15:22:53.330Z,102310.44
2023-04-15T15:25:25.984Z,102309.56
2023-04-15T15:27:54.944Z,102304.22
2023-04-15T15:30:21.587Z,102290.97
2023-04-15T15:32:50.696Z,102288.72
2023-04-15T15:35:17.461Z,102312.22
2023-04-15T15:37:46.384Z,102294.47
2023-04-15T15:40:13.191Z,102307.16
2023-04-15T15:42:39.838Z,102315.41
2023-04-15T15:45:07.102Z,102325.09
2023-04-15T15:47:36.336Z,102317.09
2023-04-15T15:50:05.526Z,102319.66
2023-04-15T15:52:32.865Z,102321.09
2023-04-15T15:54:59.558Z,102309.03
2023-04-15T15:57:26.247Z,102321.28
2023-04-15T16:00:07.917Z,102325.34
2023-04-15T16:03:05.072Z,102316.50
2023-04-15T16:05:29.282Z,102334.53
2023-04-15T16:07:55.967Z,102339.50
2023-04-15T16:10:22.620Z,102334.38
2023-04-15T16:12:49.413Z,102341.50
2023-04-15T16:15:16.099Z,102344.41
2023-04-15T16:17:42.770Z,102340.13
2023-04-15T16:20:09.812Z,102342.84
2023-04-15T16:22:36.538Z,102336.38
2023-04-15T16:25:05.716Z,102345.19
2023-04-15T16:27:38.510Z,102348.59
2023-04-15T16:30:14.407Z,102346.91
2023-04-15T16:32:41.316Z,102353.00
2023-04-15T16:35:08.476Z,102344.63
2023-04-15T16:37:36.195Z,102360.53
2023-04-15T16:40:04.290Z,102359.53
2023-04-15T16:42:31.127Z,102334.44
2023-04-15T16:45:00.628Z,102360.47
2023-04-15T16:47:29.559Z,102357.03
2023-04-15T16:49:56.437Z,102353.56
2023-04-15T16:52:23.051Z,102365.25
2023-04-15T16:54:49.719Z,102367.00
2023-04-15T16:57:16.397Z,102350.03
2023-04-15T16:59:45.490Z,102369.50
2023-04-15T17:02:13.830Z,102371.19
2023-04-15T17:04:43.302Z,102377.34
2023-04-15T17:07:12.512Z,102373.81
2023-04-15T17:09:40.442Z,102376.44
2023-04-15T17:12:07.737Z,102367.41
2023-04-15T17:14:36.878Z,102354.69
2023-04-15T17:17:03.536Z,102381.31
2023-04-15T17:19:32.722Z,102377.59
2023-04-15T17:22:02.306Z,102336.34
2023-04-15T17:24:29.028Z,102358.53
2023-04-15T17:26:57.726Z,102388.78
2023-04-15T17:29:24.924Z,102400.03
2023-04-15T17:31:51.607Z,102399.03
2023-04-15T17:34:18.399Z,102382.00
2023-04-15T17:36:45.239Z,102400.50
2023-04-15T17:39:12.042Z,102397.72
2023-04-15T17:41:41.618Z,102390.31
2023-04-15T17:44:08.232Z,102404.38
2023-04-15T17:46:35.028Z,102406.00
2023-04-15T17:49:01.979Z,102395.19
2023-04-15T17:51:28.579Z,102406.56
2023-04-15T17:53:58.130Z,102405.13
2023-04-15T17:56:27.918Z,102418.31
2023-04-15T17:58:55.639Z,102421.59
2023-04-15T18:01:24.712Z,102403.38
2023-04-15T18:03:51.598Z,102421.06
2023-04-15T18:06:21.368Z,102433.81
2023-04-15T18:08:59.242Z,102422.19
2023-04-15T18:11:26.168Z,102380.63
2023-04-15T18:13:52.777Z,102429.31
2023-04-15T18:16:19.596Z,102436.16
2023-04-15T18:18:46.304Z,102431.47
2023-04-15T18:21:13.845Z,102441.59
2023-04-15T18:23:43.650Z,102443.03
2023-04-15T18:26:13.282Z,102450.63
2023-04-15T18:28:39.976Z,102461.56
2023-04-15T18:31:06.680Z,102463.00
2023-04-15T18:33:35.862Z,102464.44
2023-04-15T18:36:02.717Z,102433.97
2023-04-15T18:38:34.120Z,102465.59
2023-04-15T18:41:03.007Z,102467.81
2023-04-15T18:43:32.340Z,102471.00
2023-04-15T18:46:00.129Z,102472.47
2023-04-15T18:48:27.273Z,102474.75
2023-04-15T18:50:54.076Z,102472.63
2023-04-15T18:53:21.652Z,102475.88
2023-04-15T18:55:48.416Z,102479.94
2023-04-15T18:58:15.121Z,102483.16
2023-04-15T19:00:43.941Z,102481.94
2023-04-15T19:03:11.589Z,102491.25
2023-04-15T19:05:38.475Z,102489.09
2023-04-15T19:08:05.470Z,102493.13
2023-04-15T19:10:34.350Z,102467.38
2023-04-15T19:13:01.189Z,102489.41
2023-04-15T19:15:29.110Z,102513.16
2023-04-15T19:17:55.897Z,102503.03
2023-04-15T19:20:22.630Z,102519.59
2023-04-15T19:22:49.373Z,102518.47
2023-04-15T19:25:15.994Z,102515.44
2023-04-15T19:27:44.970Z,102511.22
2023-04-15T19:30:11.763Z,102532.50
2023-04-15T19:32:40.533Z,102533.88
2023-04-15T19:35:11.646Z,102542.25
2023-04-15T19:37:38.538Z,102555.13
2023-04-15T19:40:08.680Z,102555.69
2023-04-15T19:42:35.407Z,102545.69
2023-04-15T19:45:02.177Z,102556.72
2023-04-15T19:47:36.275Z,102563.59
2023-04-15T19:50:07.468Z,102558.75
2023-04-15T19:52:34.608Z,102565.78
2023-04-15T19:55:03.850Z,102545.75
2023-04-15T19:57:30.466Z,102570.56
2023-04-15T19:59:59.516Z,102572.75
2023-04-15T20:02:26.380Z,102572.47
2023-04-15T20:04:55.630Z,102572.16
2023-04-15T20:07:22.265Z,102552.03
2023-04-15T20:09:49.097Z,102547.28
2023-04-15T20:12:50.257Z,102576.75
2023-04-15T20:15:03.539Z,102583.50
2023-04-15T20:17:33.262Z,102589.44
2023-04-15T20:19:59.900Z,102580.34
2023-04-15T20:22:26.736Z,102579.72
2023-04-15T20:24:53.380Z,102600.03
2023-04-15T20:27:23.096Z,102603.19
2023-04-15T20:29:52.538Z,102607.22
2023-04-15T20:32:19.242Z,102599.06
2023-04-15T20:34:48.243Z,102601.56
2023-04-15T20:37:17.700Z,102618.91
2023-04-15T20:39:46.514Z,102603.44
2023-04-15T20:42:13.256Z,102615.84
2023-04-15T20:44:42.404Z,102596.78
2023-04-15T20:47:09.014Z,102613.41
2023-04-15T20:49:39.637Z,102610.53
2023-04-15T20:52:07.855Z,102614.66
2023-04-15T20:54:34.669Z,102613.34
2023-04-15T20:57:01.847Z,102618.56
2023-04-15T20:59:28.577Z,102613.09
2023-04-15T21:01:57.022Z,102607.56
2023-04-15T21:04:24.626Z,102608.84
2023-04-15T21:06:52.354Z,102616.00
2023-04-15T21:09:19.206Z,102608.91
2023-04-15T21:12:00.499Z,102619.31
2023-04-15T21:14:30.410Z,102602.13
2023-04-15T21:16:58.159Z,102625.13
2023-04-15T21:19:27.019Z,102633.78
2023-04-15T21:21:53.613Z,102608.75
2023-04-15T21:24:22.730Z,102630.88
2023-04-15T21:26:49.486Z,102643.97
2023-04-15T21:29:16.187Z,102640.38
2023-04-15T21:31:42.923Z,102624.88
2023-04-15T21:34:12.615Z,102630.09
2023-04-15T21:36:41.462Z,102654.72
2023-04-15T21:39:08.285Z,102640.03
2023-04-15T21:41:37.777Z,102630.97
2023-04-15T21:44:04.507Z,102647.22
2023-04-15T21:46:32.684Z,102659.34
2023-04-15T21:49:01.318Z,102661.84
2023-04-15T21:51:28.150Z,102661.66
2023-04-15T21:53:54.870Z,102637.16
2023-04-15T21:56:24.713Z,102667.97
2023-04-15T21:58:56.489Z,102663.38
2023-04-15T22:01:23.948Z,102659.56
2023-04-15T22:03:53.165Z,102668.31
2023-04-15T22:06:22.407Z,102658.56
2023-04-15T22:08:56.832Z,102633.22
2023-04-15T22:11:27.661Z,102663.50
2023-04-15T22:13:55.055Z,102658.19
2023-04-15T22:16:21.850Z,102618.78
2023-04-15T22:18:48.724Z,102656.69
2023-04-15T22:21:20.038Z,102670.78
2023-04-15T22:23:48.039Z,102672.41
2023-04-15T22:26:15.157Z,102669.59
2023-04-15T22:28:42.179Z,102673.19
2023-04-15T22:31:09.027Z,102669.69
2023-04-15T22:33:35.775Z,102672.31
2023-04-15T22:36:04.776Z,102674.09
2023-04-15T22:38:31.531Z,102655.09
2023-04-15T22:40:58.491Z,102680.09
2023-04-15T22:43:27.876Z,102677.50
2023-04-15T22:45:55.129Z,102681.00
2023-04-15T22:48:22.627Z,102669.28
2023-04-15T22:50:49.583Z,102674.91
2023-04-15T22:53:17.412Z,102671.41
2023-04-15T22:55:47.949Z,102680.59
2023-04-15T22:58:15.398Z,102673.50
2023-04-15T23:00:42.276Z,102685.28
2023-04-15T23:03:09.163Z,102683.28
2023-04-15T23:05:40.120Z,102694.78
2023-04-15T23:08:07.615Z,102684.19
2023-04-15T23:10:34.307Z,102694.09
2023-04-15T23:13:00.949Z,102699.50
2023-04-15T23:15:29.795Z,102699.38
2023-04-15T23:17:56.576Z,102699.69
2023-04-15T23:20:23.490Z,102699.69
2023-04-15T23:22:52.340Z,102705.06
2023-04-15T23:25:22.262Z,102702.47
2023-04-15T23:27:48.935Z,102710.38
2023-04-15T23:30:15.597Z,102709.38
2023-04-15T23:32:45.238Z,102709.38
2023-04-15T23:35:11.927Z,102681.69
2023-04-15T23:37:38.540Z,102711.28
2023-04-15T23:40:06.069Z,102697.38
2023-04-15T23:42:32.888Z,102705.06
2023-04-15T23:44:59.531Z,102705.06
2023-04-15T23:47:26.346Z,102701.19
2023-04-15T23:49:53.115Z,102695.19
2023-04-15T23:52:19.794Z,102708.50
2023-04-15T23:54:46.455Z,102709.59
2023-04-15T23:57:13.109Z,102674.00
2023-04-15T23:59:42.148Z,102714.28
